Time;durP1;ratioP1;P1;durP2;ratioP2;P2;SDS_P1;SDS_P2;PMS_P1;PMS_P2;Temp;Humidity;BMP_temperature;BMP_pressure;BME280_temperature;BME280_humidity;BME280_pressure;Samples;Min_cycle;Max_cycle;Signal;HPM_P1;HPM_P2
2021/12/15 00:00:22;;;;;;;91.45;38.60;;;9.50;99.90;;;;;;5055592;28;20376;-74
2021/12/15 00:02:51;;;;;;;89.82;36.72;;;9.50;99.90;;;;;;5073162;28;20048;-77
2021/12/15 00:05:22;;;;;;;98.28;40.95;;;9.50;99.90;;;;;;5072771;28;20060;-78
2021/12/15 00:07:54;;;;;;;84.30;34.78;;;9.50;99.90;;;;;;5073144;28;20050;-77
2021/12/15 00:10:21;;;;;;;84.85;34.15;;;9.50;99.90;;;;;;5073078;28;20373;-76
2021/12/15 00:12:47;;;;;;;81.15;35.78;;;9.50;99.90;;;;;;5073137;28;20048;-75
2021/12/15 00:15:13;;;;;;;88.47;36.45;;;9.50;99.90;;;;;;5072932;28;20040;-74
2021/12/15 00:17:39;;;;;;;89.78;34.78;;;9.50;99.90;;;;;;5072843;28;20094;-75
2021/12/15 00:20:09;;;;;;;79.97;33.55;;;9.50;99.90;;;;;;5072938;28;20432;-76
2021/12/15 00:22:35;;;;;;;85.65;34.20;;;9.50;99.90;;;;;;5073029;28;20097;-76
2021/12/15 00:25:03;;;;;;;81.82;34.90;;;9.90;99.90;;;;;;5071991;28;20057;-75
2021/12/15 00:27:28;;;;;;;72.72;32.42;;;9.60;99.90;;;;;;5072992;28;20041;-75
2021/12/15 00:29:54;;;;;;;82.72;34.80;;;9.60;99.90;;;;;;5072895;28;20081;-75
2021/12/15 00:32:20;;;;;;;69.88;31.70;;;9.80;99.90;;;;;;5072781;28;20509;-75
2021/12/15 00:34:45;;;;;;;67.57;32.20;;;9.60;99.90;;;;;;5072021;28;20106;-75
2021/12/15 00:37:11;;;;;;;67.72;33.05;;;9.60;99.90;;;;;;5072960;28;20051;-75
2021/12/15 00:39:37;;;;;;;69.82;31.73;;;9.80;99.90;;;;;;5072818;28;20049;-75
2021/12/15 00:42:04;;;;;;;;;;;9.90;99.90;;;;;;5073312;28;20068;-75
2021/12/15 00:44:30;;;;;;;64.95;30.23;;;9.60;99.90;;;;;;5072683;28;20019;-75
2021/12/15 00:46:56;;;;;;;64.20;30.88;;;9.60;99.90;;;;;;5072663;28;20114;-75
2021/12/15 00:49:23;;;;;;;66.70;31.98;;;9.60;99.90;;;;;;5075300;28;20488;-75
2021/12/15 00:51:50;;;;;;;65.53;30.27;;;9.60;99.90;;;;;;5076561;28;20059;-78
2021/12/15 00:54:16;;;;;;;73.03;32.38;;;9.80;99.90;;;;;;5075210;28;20059;-75
2021/12/15 00:56:42;;;;;;;65.03;29.98;;;9.60;99.90;;;;;;5076321;28;20055;-75
2021/12/15 00:59:10;;;;;;;64.90;30.67;;;9.60;99.90;;;;;;5075371;28;20103;-78
2021/12/15 01:01:39;;;;;;;67.55;30.17;;;9.60;99.90;;;;;;5076223;28;20056;-76
2021/12/15 01:04:06;;;;;;;72.13;28.75;;;9.60;99.90;;;;;;5076123;28;20135;-75
2021/12/15 01:06:33;;;;;;;56.97;29.42;;;9.60;99.90;;;;;;5075948;28;20049;-75
2021/12/15 01:09:04;;;;;;;55.70;30.00;;;9.90;99.90;;;;;;5076152;28;20542;-76
2021/12/15 01:12:07;;;;;;;55.15;27.65;;;9.70;99.90;;;;;;5076123;28;20051;-77
2021/12/15 01:20:20;;;;;;;62.60;29.80;;;10.10;99.90;;;;;;5074974;28;20065;-79
2021/12/15 01:22:49;;;;;;;59.13;29.30;;;9.70;99.90;;;;;;5075819;28;20049;-75
2021/12/15 01:25:26;;;;;;;61.67;27.48;;;9.70;99.90;;;;;;5075984;28;20131;-76
2021/12/15 01:27:52;;;;;;;;;;;9.70;99.90;;;;;;5076432;28;20056;-74
2021/12/15 01:30:23;;;;;;;51.45;24.48;;;9.60;99.90;;;;;;5074839;28;19920;-77
2021/12/15 01:32:49;;;;;;;58.28;29.65;;;10.20;99.90;;;;;;5075573;28;20411;-76
2021/12/15 01:35:15;;;;;;;;;;;9.60;99.90;;;;;;5076072;28;20044;-73
2021/12/15 01:37:41;;;;;;;59.22;29.38;;;9.70;99.90;;;;;;5074237;28;19928;-78
2021/12/15 01:40:15;;;;;;;50.88;26.38;;;9.70;99.90;;;;;;5075659;28;20047;-76
2021/12/15 01:42:41;;;;;;;68.68;28.65;;;9.70;99.90;;;;;;5075747;28;20049;-75
2021/12/15 01:48:11;;;;;;;51.70;27.75;;;9.70;99.90;;;;;;5016942;28;20196;-78
2021/12/15 01:50:37;;;;;;;56.58;28.13;;;10.80;99.90;;;;;;5033105;28;20068;-75
2021/12/15 01:53:06;;;;;;;53.40;28.98;;;9.70;99.90;;;;;;5033283;28;20531;-76
2021/12/15 01:55:32;;;;;;;64.32;29.52;;;10.30;99.90;;;;;;5032949;28;20192;-75
2021/12/15 01:57:58;;;;;;;53.15;29.40;;;9.70;99.90;;;;;;5033041;28;20061;-76
2021/12/15 02:00:35;;;;;;;61.90;28.83;;;10.50;99.90;;;;;;5032572;28;20412;-76
2021/12/15 02:03:01;;;;;;;;;;;9.60;99.90;;;;;;5016978;28;20448;-75
2021/12/15 02:05:30;;;;;;;62.05;29.30;;;9.70;99.90;;;;;;5032733;28;19921;-79
2021/12/15 02:07:59;;;;;;;53.75;28.63;;;9.60;99.90;;;;;;5016303;28;20091;-75
2021/12/15 02:10:29;;;;;;;54.15;26.65;;;9.60;99.90;;;;;;5032644;28;20065;-74
2021/12/15 02:12:57;;;;;;;57.55;31.02;;;9.60;99.90;;;;;;5016627;28;20523;-76
2021/12/15 02:15:30;;;;;;;53.13;27.20;;;10.70;99.90;;;;;;5032648;28;20052;-76
2021/12/15 02:17:57;;;;;;;58.30;28.08;;;9.60;99.90;;;;;;5032650;28;20057;-78
2021/12/15 02:20:26;;;;;;;;;;;9.60;99.90;;;;;;5033152;28;20068;-75
2021/12/15 02:22:52;;;;;;;52.03;26.92;;;9.20;99.90;;;;;;5039743;28;20300;-76
2021/12/15 02:25:19;;;;;;;53.47;26.58;;;9.60;99.90;;;;;;5074707;28;20055;-74
2021/12/15 02:27:45;;;;;;;61.03;27.10;;;9.70;99.90;;;;;;5074665;28;20048;-75
2021/12/15 02:30:41;;;;;;;51.58;27.17;;;9.70;99.90;;;;;;5074511;28;20449;-74
2021/12/15 02:38:40;;;;;;;52.65;25.67;;;9.70;99.90;;;;;;5074087;28;20415;-74
2021/12/15 02:41:13;;;;;;;47.40;25.17;;;9.70;99.90;;;;;;5073346;28;20075;-77
2021/12/15 02:43:40;;;;;;;53.67;24.55;;;9.70;99.90;;;;;;5074329;28;20055;-75
2021/12/15 02:46:06;;;;;;;54.95;26.33;;;9.70;99.90;;;;;;5074203;28;20507;-78
2021/12/15 02:48:32;;;;;;;53.13;28.20;;;10.50;99.90;;;;;;5074270;28;20115;-77
2021/12/15 02:50:59;;;;;;;52.50;26.10;;;10.60;99.90;;;;;;5074082;28;20078;-76
2021/12/15 02:53:25;;;;;;;48.30;26.25;;;10.90;99.90;;;;;;5074302;28;20128;-76
2021/12/15 02:55:51;;;;;;;48.60;26.63;;;9.70;99.90;;;;;;5074180;28;20044;-79
2021/12/15 02:58:19;;;;;;;54.88;27.38;;;9.70;99.90;;;;;;5074035;28;20044;-74
2021/12/15 03:01:00;;;;;;;48.35;26.88;;;9.70;99.90;;;;;;5074002;28;20190;-75
2021/12/15 03:06:04;;;;;;;49.05;24.40;;;9.70;99.90;;;;;;5073745;28;20154;-75
2021/12/15 03:09:18;;;;;;;50.78;27.88;;;9.70;99.90;;;;;;5073781;28;20230;-79
2021/12/15 03:16:56;;;;;;;54.42;25.70;;;9.70;99.90;;;;;;5073917;28;20083;-74
2021/12/15 03:19:22;;;;;;;56.00;24.65;;;9.70;99.90;;;;;;5073697;28;20052;-75
2021/12/15 03:21:48;;;;;;;50.67;25.08;;;9.70;99.90;;;;;;5073633;28;20119;-74
2021/12/15 03:24:19;;;;;;;54.03;25.65;;;9.80;99.90;;;;;;5073544;28;20091;-75
2021/12/15 03:26:57;;;;;;;49.33;24.58;;;9.70;99.90;;;;;;5072440;28;20128;-76
2021/12/15 03:37:56;;;;;;;52.72;24.67;;;9.80;99.90;;;;;;5031121;28;20045;-75
2021/12/15 03:40:36;;;;;;;52.63;27.23;;;10.60;99.90;;;;;;5031165;28;20083;-74
2021/12/15 03:43:05;;;;;;;44.97;24.77;;;9.80;99.90;;;;;;5031189;28;20140;-75
2021/12/15 03:45:39;;;;;;;52.38;24.88;;;9.80;99.90;;;;;;5014827;28;20045;-75
2021/12/15 03:48:16;;;;;;;53.10;25.40;;;10.20;99.90;;;;;;5031264;28;20107;-78
2021/12/15 03:50:43;;;;;;;43.60;23.45;;;9.80;99.90;;;;;;5031218;28;20045;-75
2021/12/15 03:53:11;;;;;;;54.00;25.70;;;9.80;99.90;;;;;;5031105;28;20049;-75
2021/12/15 03:55:37;;;;;;;43.80;25.10;;;9.80;99.90;;;;;;5030925;28;20428;-75
2021/12/15 03:58:07;;;;;;;;;;;9.80;99.90;;;;;;5031428;28;20084;-76
2021/12/15 04:00:33;;;;;;;51.20;24.98;;;9.80;99.90;;;;;;5031069;28;20385;-76
2021/12/15 04:02:59;;;;;;;;;;;9.80;99.90;;;;;;5031536;28;20041;-75
2021/12/15 04:05:24;;;;;;;45.50;24.40;;;9.80;99.90;;;;;;5014255;28;20340;-75
2021/12/15 04:07:51;;;;;;;55.22;26.00;;;9.80;99.90;;;;;;5030924;28;20050;-77
2021/12/15 04:10:20;;;;;;;51.90;25.02;;;9.80;99.90;;;;;;5030893;28;20056;-75
2021/12/15 04:12:47;;;;;;;49.00;24.92;;;9.80;99.90;;;;;;5030939;28;20060;-76
2021/12/15 04:15:27;;;;;;;45.95;24.13;;;9.90;99.90;;;;;;5068756;28;20143;-75
2021/12/15 04:17:58;;;;;;;46.15;23.13;;;9.80;99.90;;;;;;5073149;28;20084;-74
2021/12/15 04:20:27;;;;;;;44.65;25.73;;;9.80;99.90;;;;;;5073100;28;20411;-77
2021/12/15 04:22:53;;;;;;;49.17;24.27;;;9.80;99.90;;;;;;5074113;28;20190;-76
2021/12/15 04:25:23;;;;;;;50.28;23.80;;;10.10;99.90;;;;;;5076929;28;20055;-79
2021/12/15 04:28:01;;;;;;;50.90;24.85;;;9.80;99.90;;;;;;5076931;28;20120;-77
2021/12/15 04:30:28;;;;;;;43.78;22.65;;;9.80;99.90;;;;;;5077105;28;20408;-77
2021/12/15 04:32:57;;;;;;;48.97;25.10;;;9.80;99.90;;;;;;5076054;28;20392;-77
2021/12/15 04:35:23;;;;;;;45.35;24.38;;;9.80;99.90;;;;;;5076800;28;20400;-75
2021/12/15 04:37:51;;;;;;;48.45;24.67;;;9.80;99.90;;;;;;5075445;28;20040;-75
2021/12/15 04:40:20;;;;;;;56.35;27.13;;;9.80;99.90;;;;;;5076560;28;20094;-76
2021/12/15 04:42:46;;;;;;;48.05;24.80;;;9.80;99.90;;;;;;5076794;28;20048;-76
2021/12/15 04:45:15;;;;;;;51.05;26.75;;;9.80;99.90;;;;;;5076700;28;20391;-77
2021/12/15 04:47:41;;;;;;;55.15;23.15;;;9.80;99.90;;;;;;5075638;28;20052;-75
2021/12/15 04:50:08;;;;;;;48.13;24.33;;;9.80;99.90;;;;;;5076541;28;20398;-77
2021/12/15 04:52:34;;;;;;;50.67;24.45;;;9.80;99.90;;;;;;5076450;28;20105;-75
2021/12/15 04:55:01;;;;;;;47.80;25.02;;;9.90;99.90;;;;;;5076242;28;20049;-74
2021/12/15 04:57:28;;;;;;;57.67;26.15;;;10.60;99.90;;;;;;5075205;28;20052;-79
2021/12/15 04:59:54;;;;;;;;;;;9.80;99.90;;;;;;5075696;28;20044;-77
2021/12/15 05:02:21;;;;;;;56.63;26.52;;;9.80;99.90;;;;;;5076323;28;19927;-78
2021/12/15 05:04:48;;;;;;;57.40;26.70;;;9.80;99.90;;;;;;5076206;28;20056;-74
2021/12/15 05:07:14;;;;;;;46.65;24.50;;;10.60;99.90;;;;;;5075888;28;20052;-75
2021/12/15 05:09:40;;;;;;;52.50;27.45;;;10.10;99.90;;;;;;5076023;28;20052;-75
2021/12/15 05:12:06;;;;;;;52.35;27.83;;;9.80;99.90;;;;;;5076326;28;20037;-75
2021/12/15 05:14:32;;;;;;;51.08;25.92;;;9.80;99.90;;;;;;5074986;28;20044;-75
2021/12/15 05:16:59;;;;;;;54.60;27.00;;;9.90;99.90;;;;;;5076078;28;20092;-75
2021/12/15 05:19:26;;;;;;;;;;;9.80;99.90;;;;;;5076409;28;20090;-75
2021/12/15 05:21:54;;;;;;;55.22;30.17;;;9.80;99.90;;;;;;5075892;28;19921;-75
2021/12/15 05:27:01;;;;;;;58.50;30.08;;;9.80;99.90;;;;;;5075989;28;20480;-77
2021/12/15 05:29:27;;;;;;;57.58;27.33;;;9.80;99.90;;;;;;5074679;28;20078;-77
2021/12/15 05:31:53;;;;;;;58.15;28.63;;;10.50;99.90;;;;;;5075766;28;20136;-75
2021/12/15 05:34:20;;;;;;;;;;;9.80;99.90;;;;;;5075309;28;20415;-75
2021/12/15 05:36:47;;;;;;;59.05;28.27;;;9.70;99.90;;;;;;5075625;28;19933;-75
2021/12/15 05:39:13;;;;;;;57.20;29.73;;;9.80;99.90;;;;;;5075473;28;20052;-76
2021/12/15 05:41:39;;;;;;;52.72;27.92;;;9.80;99.90;;;;;;5074503;28;20060;-75
2021/12/15 05:44:06;;;;;;;56.40;28.63;;;10.40;99.90;;;;;;5075570;28;20080;-75
2021/12/15 05:46:33;;;;;;;69.40;31.73;;;9.80;99.90;;;;;;5075461;28;20048;-75
2021/12/15 05:48:58;;;;;;;60.65;28.58;;;10.30;99.90;;;;;;5075473;28;20377;-76
2021/12/15 05:51:24;;;;;;;50.58;29.20;;;10.80;99.90;;;;;;5075395;28;20051;-76
2021/12/15 05:53:50;;;;;;;62.95;29.42;;;9.80;99.90;;;;;;5074175;28;20045;-75
2021/12/15 05:56:18;;;;;;;55.72;28.20;;;9.90;99.90;;;;;;5057691;28;20045;-77
2021/12/15 05:58:45;;;;;;;62.47;29.20;;;9.80;99.90;;;;;;5075303;28;20120;-79
2021/12/15 06:01:10;;;;;;;58.33;29.88;;;9.80;99.90;;;;;;5075302;28;20051;-75
2021/12/15 06:03:37;;;;;;;70.28;31.83;;;9.80;99.90;;;;;;5075135;28;20036;-75
2021/12/15 06:06:03;;;;;;;62.63;31.45;;;9.90;99.90;;;;;;5074944;28;20053;-76
2021/12/15 06:08:28;;;;;;;58.88;31.27;;;9.80;99.90;;;;;;5074954;28;20036;-75
2021/12/15 06:10:54;;;;;;;60.38;29.52;;;9.70;99.90;;;;;;5075213;28;20052;-75
2021/12/15 06:13:23;;;;;;;60.08;28.40;;;9.80;99.90;;;;;;5075127;28;20462;-77
2021/12/15 06:15:49;;;;;;;59.65;28.15;;;9.80;99.90;;;;;;5074866;28;20049;-75
2021/12/15 06:18:18;;;;;;;60.20;29.52;;;9.80;99.90;;;;;;5074874;28;20442;-75
2021/12/15 06:20:48;;;;;;;60.75;30.65;;;10.40;99.90;;;;;;5074740;28;20053;-76
2021/12/15 06:23:19;;;;;;;56.38;28.70;;;9.80;99.90;;;;;;5073754;28;20079;-75
2021/12/15 06:25:48;;;;;;;60.72;29.90;;;9.70;99.90;;;;;;5074822;28;20048;-75
2021/12/15 06:28:14;;;;;;;55.05;29.52;;;9.80;99.90;;;;;;5073549;28;20037;-78
2021/12/15 06:30:40;;;;;;;;;;;9.80;99.90;;;;;;5073951;28;20071;-75
2021/12/15 06:33:07;;;;;;;52.90;29.23;;;9.80;99.90;;;;;;5074564;28;19921;-76
2021/12/15 06:35:33;;;;;;;;;;;9.80;99.90;;;;;;5074943;28;20087;-74
2021/12/15 06:37:59;;;;;;;59.85;28.30;;;9.80;99.90;;;;;;5073228;28;19921;-76
2021/12/15 06:40:25;;;;;;;61.85;31.50;;;9.80;99.90;;;;;;5074546;28;20046;-76
2021/12/15 06:42:50;;;;;;;63.13;29.60;;;9.80;99.90;;;;;;5074627;28;20044;-81
2021/12/15 06:45:19;;;;;;;57.03;29.25;;;10.60;99.90;;;;;;5073242;28;20131;-75
2021/12/15 06:57:27;;;;;;;58.90;29.40;;;9.80;99.90;;;;;;5074303;28;20051;-79
2021/12/15 06:58:47;;;;;;;52.03;27.35;;;9.80;99.90;;;;;;5073880;28;20488;-75
2021/12/15 07:01:13;;;;;;;59.63;28.63;;;9.80;99.90;;;;;;5073902;28;20049;-74
2021/12/15 07:03:39;;;;;;;59.63;28.90;;;9.80;99.90;;;;;;5074094;28;20040;-74
2021/12/15 07:06:05;;;;;;;64.45;30.00;;;9.80;99.90;;;;;;5072666;28;20072;-75
2021/12/15 07:08:31;;;;;;;56.28;28.05;;;9.80;99.90;;;;;;5073858;28;20044;-75
2021/12/15 07:11:00;;;;;;;67.07;31.63;;;9.70;99.90;;;;;;5073790;28;20141;-77
2021/12/15 07:13:26;;;;;;;60.47;28.25;;;9.80;99.90;;;;;;5073697;28;20048;-75
2021/12/15 07:15:59;;;;;;;53.72;28.45;;;9.90;99.90;;;;;;5073674;28;20048;-78
2021/12/15 07:18:37;;;;;;;59.80;28.70;;;9.80;99.90;;;;;;5073727;28;20044;-77
2021/12/15 07:21:08;;;;;;;51.08;28.13;;;9.80;99.90;;;;;;5072461;28;20052;-75
2021/12/15 07:23:36;;;;;;;57.15;28.90;;;9.80;99.90;;;;;;5073626;28;20129;-77
2021/12/15 07:26:02;;;;;;;50.13;24.80;;;9.90;99.90;;;;;;5073447;28;20044;-76
2021/12/15 07:28:28;;;;;;;59.42;28.23;;;9.80;99.90;;;;;;5073472;28;20123;-76
2021/12/15 07:30:54;;;;;;;55.42;28.02;;;9.80;99.90;;;;;;5072502;28;20139;-76
2021/12/15 07:33:20;;;;;;;53.47;28.80;;;9.80;99.90;;;;;;5073262;28;20099;-76
2021/12/15 07:35:46;;;;;;;55.38;27.75;;;9.80;99.90;;;;;;5072437;28;20483;-75
2021/12/15 07:38:12;;;;;;;51.17;25.90;;;9.80;99.90;;;;;;5073396;28;20098;-78
2021/12/15 07:40:40;;;;;;;56.88;27.40;;;9.80;99.90;;;;;;5072010;28;20048;-78
2021/12/15 07:43:12;;;;;;;57.03;28.20;;;9.80;99.90;;;;;;5072224;28;20075;-75
2021/12/15 07:45:40;;;;;;;62.45;27.85;;;9.80;99.90;;;;;;5073292;28;20094;-75
2021/12/15 07:48:08;;;;;;;48.70;26.83;;;10.00;99.90;;;;;;5073367;28;20127;-75
2021/12/15 07:50:36;;;;;;;57.22;28.23;;;9.90;99.90;;;;;;5072037;28;20411;-76
2021/12/15 07:53:02;;;;;;;54.03;25.25;;;9.90;99.90;;;;;;5038938;28;20052;-76
2021/12/15 07:55:28;;;;;;;;;;;10.40;99.90;;;;;;5073524;28;20048;-74
2021/12/15 07:57:53;;;;;;;54.70;28.33;;;9.70;99.90;;;;;;5072545;28;19976;-75
2021/12/15 08:00:20;;;;;;;58.05;30.08;;;9.80;99.90;;;;;;5073147;28;20044;-75
2021/12/15 08:02:46;;;;;;;58.05;27.63;;;9.80;99.90;;;;;;5073267;28;20044;-75
2021/12/15 08:05:12;;;;;;;56.72;27.45;;;9.80;99.90;;;;;;5071980;28;20182;-76
2021/12/15 08:07:39;;;;;;;54.67;27.52;;;9.80;99.90;;;;;;5072126;28;20052;-76
2021/12/15 08:10:09;;;;;;;52.38;29.08;;;10.10;99.90;;;;;;5071890;28;20084;-75
2021/12/15 08:12:35;;;;;;;59.55;27.10;;;9.80;99.90;;;;;;5072989;28;20036;-77
2021/12/15 08:15:01;;;;;;;53.45;27.08;;;9.80;99.90;;;;;;5073151;28;20098;-75
2021/12/15 08:17:27;;;;;;;56.05;27.30;;;9.80;99.90;;;;;;5073056;28;20040;-78
2021/12/15 08:19:52;;;;;;;54.88;27.23;;;9.80;99.90;;;;;;5073051;28;20090;-75
2021/12/15 08:22:18;;;;;;;49.50;24.42;;;10.80;99.90;;;;;;5072973;28;20541;-76
2021/12/15 08:24:44;;;;;;;48.40;25.75;;;9.80;99.90;;;;;;5072889;28;20146;-76
2021/12/15 08:27:10;;;;;;;49.15;24.30;;;10.80;99.90;;;;;;5072814;28;20566;-76
2021/12/15 08:29:36;;;;;;;47.22;24.90;;;10.60;99.90;;;;;;5073118;28;20095;-75
2021/12/15 08:32:02;;;;;;;50.00;24.67;;;9.80;99.90;;;;;;5072954;28;20041;-75
2021/12/15 08:34:28;;;;;;;;;;;9.80;99.90;;;;;;5073207;28;20093;-74
2021/12/15 08:36:54;;;;;;;51.78;26.73;;;9.80;99.90;;;;;;5072809;28;19920;-76
2021/12/15 08:39:21;;;;;;;48.42;24.17;;;9.80;99.90;;;;;;5072685;28;20053;-76
2021/12/15 08:41:47;;;;;;;52.90;27.33;;;9.80;99.90;;;;;;5072762;28;20057;-75
2021/12/15 08:44:12;;;;;;;45.50;23.60;;;9.90;99.90;;;;;;5072904;28;20037;-75
2021/12/15 08:46:44;;;;;;;42.63;22.90;;;10.20;99.90;;;;;;5072392;28;20499;-75
2021/12/15 08:49:14;;;;;;;44.47;24.05;;;9.90;99.90;;;;;;5070086;28;20044;-73
2021/12/15 08:51:40;;;;;;;44.17;22.83;;;9.90;99.90;;;;;;5071763;28;20056;-75
2021/12/15 08:54:11;;;;;;;42.72;22.27;;;9.90;99.90;;;;;;5072506;28;20041;-75
2021/12/15 08:56:37;;;;;;;37.40;19.48;;;10.10;99.90;;;;;;5072508;28;20056;-75
2021/12/15 08:59:04;;;;;;;43.58;21.95;;;10.10;99.90;;;;;;5088330;28;20055;-76
2021/12/15 09:01:30;;;;;;;40.38;20.70;;;9.90;99.90;;;;;;5072706;28;20090;-75
2021/12/15 09:03:56;;;;;;;39.08;20.33;;;9.90;99.90;;;;;;5072648;28;20559;-76
2021/12/15 09:06:24;;;;;;;44.42;21.98;;;10.20;99.90;;;;;;5072094;28;20167;-75
2021/12/15 09:08:50;;;;;;;40.47;22.20;;;9.90;99.90;;;;;;5072505;28;20582;-77
2021/12/15 09:11:19;;;;;;;38.25;20.33;;;10.00;99.90;;;;;;5090412;28;20080;-75
2021/12/15 09:13:50;;;;;;;39.45;19.88;;;10.00;99.90;;;;;;5076202;28;20048;-75
2021/12/15 09:16:16;;;;;;;41.13;19.45;;;10.00;99.90;;;;;;5074795;28;20095;-79
2021/12/15 09:18:45;;;;;;;35.17;18.48;;;10.10;99.90;;;;;;5075960;28;20040;-76
2021/12/15 09:21:13;;;;;;;37.08;20.25;;;11.10;99.90;;;;;;5075902;28;20075;-76
2021/12/15 09:23:39;;;;;;;32.55;18.67;;;10.00;99.90;;;;;;5075715;28;20552;-74
2021/12/15 09:26:06;;;;;;;35.03;18.52;;;10.30;99.90;;;;;;5075973;28;20045;-75
2021/12/15 09:28:33;;;;;;;34.22;17.48;;;10.00;99.90;;;;;;5075960;28;20083;-78
2021/12/15 09:30:59;;;;;;;39.10;18.75;;;10.10;99.90;;;;;;5075739;28;20051;-79
2021/12/15 09:33:29;;;;;;;36.63;16.48;;;10.10;99.90;;;;;;5075816;28;20044;-75
2021/12/15 09:35:56;;;;;;;35.92;17.77;;;10.10;99.90;;;;;;5075673;28;20448;-76
2021/12/15 09:38:22;;;;;;;29.60;16.70;;;10.20;99.90;;;;;;5075500;28;20040;-75
2021/12/15 09:40:50;;;;;;;33.13;17.50;;;11.50;99.90;;;;;;5075513;28;20052;-78
2021/12/15 09:43:17;;;;;;;27.98;15.90;;;10.10;99.90;;;;;;5075441;28;20048;-75
2021/12/15 09:45:52;;;;;;;31.05;17.05;;;10.10;99.90;;;;;;5091375;28;20412;-77
2021/12/15 10:02:31;;;;;;;30.02;14.27;;;10.10;99.90;;;;;;5075268;28;20063;-75
2021/12/15 10:18:26;;;;;;;33.85;16.55;;;10.10;99.90;;;;;;5074675;28;20106;-74
2021/12/15 10:20:52;;;;;;;25.83;15.13;;;10.10;99.90;;;;;;5074615;28;20110;-74
2021/12/15 10:23:24;;;;;;;30.30;17.35;;;10.40;99.90;;;;;;5073874;28;20392;-74
2021/12/15 10:25:54;;;;;;;29.75;15.13;;;10.20;99.90;;;;;;5073658;28;20131;-76
2021/12/15 10:28:21;;;;;;;25.33;14.18;;;10.20;99.90;;;;;;5073508;28;20032;-75
2021/12/15 10:30:54;;;;;;;28.17;17.73;;;10.40;99.90;;;;;;5073426;28;20056;-74
2021/12/15 10:33:27;;;;;;;29.77;16.35;;;10.20;99.90;;;;;;5074446;28;21019;-74
2021/12/15 10:36:06;;;;;;;32.35;15.25;;;11.10;99.90;;;;;;5074443;28;20491;-75
2021/12/15 10:38:32;;;;;;;29.90;16.02;;;10.30;99.90;;;;;;5074373;28;20094;-74
2021/12/15 10:41:09;;;;;;;25.40;15.48;;;10.30;99.90;;;;;;5074422;28;20059;-75
2021/12/15 10:43:37;;;;;;;28.38;14.85;;;10.30;99.90;;;;;;5074196;28;20106;-74
2021/12/15 10:46:13;;;;;;;29.27;15.15;;;10.40;99.90;;;;;;5074400;28;20052;-74
2021/12/15 10:49:04;;;;;;;28.58;14.95;;;10.30;99.90;;;;;;5073136;28;20043;-73
2021/12/15 10:51:36;;;;;;;30.13;13.50;;;11.10;99.90;;;;;;5030361;28;20057;-73
2021/12/15 10:54:31;;;;;;;27.38;14.98;;;10.30;99.90;;;;;;5015513;28;20062;-73
2021/12/15 10:57:12;;;;;;;25.13;14.35;;;10.30;99.90;;;;;;5023153;28;20057;-75
2021/12/15 10:59:49;;;;;;;26.42;13.85;;;10.30;99.90;;;;;;5031841;28;20053;-74
2021/12/15 11:02:25;;;;;;;23.80;12.32;;;10.30;99.90;;;;;;5031976;28;20064;-73
2021/12/15 11:04:57;;;;;;;21.17;12.50;;;10.30;99.90;;;;;;5031988;28;20049;-74
2021/12/15 11:07:36;;;;;;;25.45;13.15;;;10.30;99.90;;;;;;4998700;28;20128;-74
2021/12/15 11:10:11;;;;;;;18.15;10.98;;;10.30;99.90;;;;;;5031691;28;20108;-75
2021/12/15 11:13:03;;;;;;;20.15;11.93;;;10.30;99.90;;;;;;5031690;28;20552;-75
2021/12/15 11:15:44;;;;;;;20.85;11.60;;;10.30;99.90;;;;;;5027753;28;20057;-78
2021/12/15 11:18:18;;;;;;;17.70;10.38;;;10.40;99.90;;;;;;5031556;28;20492;-78
2021/12/15 11:20:52;;;;;;;18.02;10.63;;;10.40;99.90;;;;;;5015241;28;20046;-76
2021/12/15 11:23:20;;;;;;;20.40;10.60;;;10.40;99.90;;;;;;5015240;28;20049;-78
2021/12/15 11:25:48;;;;;;;23.17;11.38;;;10.40;99.90;;;;;;5031468;28;20397;-79
2021/12/15 11:28:40;;;;;;;18.67;11.10;;;10.40;99.90;;;;;;5048647;28;20145;-80
2021/12/15 11:31:06;;;;;;;23.00;10.68;;;10.40;99.90;;;;;;5055598;28;20052;-75
2021/12/15 11:33:37;;;;;;;20.05;10.18;;;10.40;99.90;;;;;;5072976;28;20055;-75
2021/12/15 11:36:25;;;;;;;21.65;11.07;;;10.40;99.90;;;;;;5073299;28;20044;-77
2021/12/15 11:38:53;;;;;;;23.45;10.32;;;10.40;99.90;;;;;;5073264;28;20051;-75
2021/12/15 11:41:25;;;;;;;23.85;11.32;;;10.50;99.90;;;;;;5073419;28;20056;-75
2021/12/15 11:43:57;;;;;;;21.85;10.50;;;11.20;99.90;;;;;;5072486;28;20048;-76
2021/12/15 11:46:34;;;;;;;19.13;11.50;;;10.40;99.90;;;;;;5073755;28;20052;-77
2021/12/15 11:49:07;;;;;;;22.02;10.38;;;10.50;99.90;;;;;;5072479;28;20517;-74
2021/12/15 11:51:41;;;;;;;17.38;9.98;;;10.50;99.90;;;;;;5073416;28;20052;-79
2021/12/15 11:54:30;;;;;;;23.23;12.57;;;10.50;99.90;;;;;;5073306;28;20139;-78
2021/12/15 11:57:16;;;;;;;17.70;9.75;;;10.50;99.90;;;;;;5073123;28;20052;-73
2021/12/15 11:59:44;;;;;;;18.83;10.27;;;10.50;99.90;;;;;;5073227;28;20049;-76
2021/12/15 12:02:22;;;;;;;17.30;9.52;;;10.50;99.90;;;;;;5073318;28;20052;-75
2021/12/15 12:04:57;;;;;;;20.88;12.20;;;10.50;99.90;;;;;;5072234;28;20044;-76
2021/12/15 12:07:49;;;;;;;17.83;8.63;;;10.50;99.90;;;;;;5073252;28;20094;-74
2021/12/15 12:10:28;;;;;;;16.50;9.50;;;10.50;99.90;;;;;;5073132;28;20048;-77
2021/12/15 12:13:23;;;;;;;17.70;9.63;;;10.50;99.90;;;;;;5073146;28;20044;-73
2021/12/15 12:15:56;;;;;;;15.02;8.18;;;10.50;99.90;;;;;;5073056;28;20089;-77
2021/12/15 12:18:24;;;;;;;19.17;10.23;;;10.50;99.90;;;;;;5073135;28;20396;-73
2021/12/15 12:20:53;;;;;;;18.40;9.68;;;11.00;99.90;;;;;;5073081;28;20052;-77
2021/12/15 12:23:30;;;;;;;16.88;10.20;;;10.50;99.90;;;;;;5073491;28;20056;-74
2021/12/15 12:26:04;;;;;;;17.25;9.45;;;10.60;99.90;;;;;;5073361;28;20059;-73
2021/12/15 12:28:37;;;;;;;22.52;10.82;;;10.60;99.90;;;;;;5072832;28;20066;-75
2021/12/15 12:31:08;;;;;;;16.15;9.65;;;10.60;99.90;;;;;;5073051;28;20048;-76
2021/12/15 12:33:35;;;;;;;17.42;10.50;;;10.60;99.90;;;;;;5072955;28;20056;-79
2021/12/15 12:36:05;;;;;;;20.17;9.32;;;10.80;99.90;;;;;;5073218;28;20048;-80
2021/12/15 12:38:34;;;;;;;15.85;9.23;;;10.60;99.90;;;;;;5072814;28;20049;-77
2021/12/15 12:41:13;;;;;;;23.98;9.70;;;10.60;99.90;;;;;;5072703;28;20045;-75
2021/12/15 12:43:43;;;;;;;17.85;8.75;;;10.60;99.90;;;;;;5073629;28;20494;-74
2021/12/15 12:46:19;;;;;;;20.10;9.80;;;10.60;99.90;;;;;;5076682;28;20051;-75
2021/12/15 13:00:19;;;;;;;;;;;10.60;99.90;;;;;;5076589;28;20510;-79
2021/12/15 13:02:50;;;;;;;15.50;8.43;;;10.50;99.90;;;;;;5075530;28;19920;-76
2021/12/15 13:05:33;;;;;;;13.68;7.93;;;10.60;99.90;;;;;;5076348;28;20048;-81
2021/12/15 13:08:02;;;;;;;18.08;8.25;;;10.60;99.90;;;;;;5076166;28;20444;-78
2021/12/15 13:10:52;;;;;;;13.18;6.75;;;11.50;99.90;;;;;;5075032;28;20082;-78
2021/12/15 13:13:27;;;;;;;9.57;5.50;;;10.50;99.90;;;;;;5076200;28;20078;-77
2021/12/15 13:16:04;;;;;;;14.77;7.63;;;10.50;99.90;;;;;;5075932;28;20048;-78
2021/12/15 13:18:44;;;;;;;;;;;10.50;99.90;;;;;;5076376;28;20123;-77
2021/12/15 13:21:12;;;;;;;14.88;7.35;;;10.50;99.90;;;;;;5075724;28;19920;-77
2021/12/15 13:23:49;;;;;;;19.10;8.13;;;10.50;99.90;;;;;;5074733;28;20045;-77
2021/12/15 13:29:21;;;;;;;9.82;6.05;;;10.50;99.90;;;;;;5075707;28;19921;-77
2021/12/15 13:31:59;;;;;;;12.57;6.38;;;10.40;99.90;;;;;;5075225;28;20071;-77
2021/12/15 13:34:36;;;;;;;8.07;5.10;;;10.40;99.90;;;;;;5075663;28;20499;-80
2021/12/15 13:37:02;;;;;;;9.00;4.53;;;10.30;99.90;;;;;;5075708;28;20055;-82
2021/12/15 13:39:44;;;;;;;11.75;5.30;;;10.20;99.90;;;;;;5075621;28;20037;-76
2021/12/15 13:42:14;;;;;;;10.45;5.53;;;10.20;99.90;;;;;;5074437;28;20043;-77
2021/12/15 13:44:47;;;;;;;7.97;4.97;;;10.40;99.90;;;;;;5075511;28;20066;-73
2021/12/15 13:47:19;;;;;;;8.70;3.80;;;10.20;99.90;;;;;;5075618;28;20049;-78
2021/12/15 13:50:29;;;;;;;8.23;4.53;;;10.20;99.90;;;;;;5075551;28;20048;-77
2021/12/15 13:52:59;;;;;;;8.20;4.00;;;10.10;99.90;;;;;;5074402;28;20103;-77
2021/12/15 13:55:39;;;;;;;11.07;5.05;;;10.90;99.90;;;;;;5074707;28;20063;-76
2021/12/15 13:58:11;;;;;;;9.68;4.88;;;10.10;99.90;;;;;;5074004;28;20454;-76
2021/12/15 14:00:54;;;;;;;8.45;4.97;;;10.70;99.90;;;;;;5075121;28;20082;-77
2021/12/15 14:03:22;;;;;;;8.60;4.13;;;10.10;99.90;;;;;;5075419;28;20040;-76
2021/12/15 14:05:51;;;;;;;18.95;4.35;;;10.00;99.90;;;;;;5075159;28;20057;-80
2021/12/15 14:08:29;;;;;;;6.97;3.03;;;10.00;99.90;;;;;;5075043;28;20500;-79
2021/12/15 14:10:59;;;;;;;5.68;3.63;;;9.90;99.90;;;;;;5074085;28;20057;-76
2021/12/15 14:13:42;;;;;;;9.75;3.25;;;10.20;99.90;;;;;;5074962;28;20102;-77
2021/12/15 14:16:08;;;;;;;8.55;3.42;;;9.80;99.90;;;;;;5075058;28;20045;-76
2021/12/15 14:18:34;;;;;;;6.93;2.97;;;9.90;99.90;;;;;;5075027;28;20045;-77